Time;durP1;ratioP1;P1;durP2;ratioP2;P2;SDS_P1;SDS_P2;PMS_P1;PMS_P2;Temp;Humidity;BMP_temperature;BMP_pressure;BME280_temperature;BME280_humidity;BME280_pressure;Samples;Min_cycle;Max_cycle;Signal;HPM_P1;HPM_P2
2022/11/11 00:00:12;;;;;;;34.47;23.40;;;;;;;6.69;69.27;95944.44;5063508;28;20032;-69
2022/11/11 00:02:37;;;;;;;37.47;23.85;;;;;;;6.60;69.71;95954.38;5055348;28;20036;-69
2022/11/11 00:05:03;;;;;;;34.42;22.30;;;;;;;6.52;69.77;95947.03;5065842;28;20036;-68
2022/11/11 00:07:29;;;;;;;35.05;22.55;;;;;;;6.55;70.01;95944.28;5067294;28;20036;-69
2022/11/11 00:09:54;;;;;;;32.33;21.98;;;;;;;6.44;69.88;95943.97;5033474;28;20036;-68
2022/11/11 00:12:20;;;;;;;35.50;22.58;;;;;;;6.48;69.74;95954.06;5036529;28;20310;-68
2022/11/11 00:14:45;;;;;;;31.98;22.20;;;;;;;6.35;69.61;95941.81;5066714;28;20037;-69
2022/11/11 00:25:25;;;;;;;28.33;19.48;;;;;;;6.12;70.91;95933.44;5069195;28;20079;-68
2022/11/11 00:27:51;;;;;;;31.58;19.52;;;;;;;6.14;71.18;95949.69;5049120;28;20025;-68
2022/11/11 00:30:17;;;;;;;31.05;20.67;;;;;;;6.16;71.60;95944.47;5052192;28;20032;-68
2022/11/11 00:32:42;;;;;;;29.83;19.85;;;;;;;6.21;71.64;95948.50;5048665;28;20068;-68
2022/11/11 00:37:51;;;;;;;32.25;20.52;;;;;;;6.15;72.43;95943.63;5038371;28;20143;-68
2022/11/11 00:40:17;;;;;;;27.83;19.17;;;;;;;6.21;73.99;95937.31;5067535;28;20025;-68
2022/11/11 00:42:42;;;;;;;28.90;19.35;;;;;;;6.30;73.81;95951.56;5060911;28;20035;-69
2022/11/11 00:45:08;;;;;;;34.55;19.67;;;;;;;6.09;74.02;95917.28;5049444;28;20037;-69
2022/11/11 00:53:03;;;;;;;28.40;18.65;;;;;;;6.38;73.43;95939.09;5071907;28;20051;-69
2022/11/11 00:55:29;;;;;;;27.70;19.20;;;;;;;6.39;73.81;95938.19;5070031;28;20032;-68
2022/11/11 00:57:54;;;;;;;27.85;18.75;;;;;;;6.46;74.16;95939.56;5056387;28;20036;-69
2022/11/11 01:00:19;;;;;;;27.73;18.30;;;;;;;6.58;74.16;95935.56;5063383;28;20040;-69
2022/11/11 01:02:45;;;;;;;25.83;18.05;;;;;;;6.53;74.55;95946.09;5057960;28;20037;-69
2022/11/11 01:05:10;;;;;;;31.10;17.92;;;;;;;6.64;74.60;95936.09;5056503;28;20477;-69
2022/11/11 01:07:36;;;;;;;26.17;16.88;;;;;;;6.71;74.87;95937.47;5038352;28;20411;-68
2022/11/11 01:10:01;;;;;;;27.02;18.30;;;;;;;6.84;75.03;95937.66;5028863;28;20423;-69
2022/11/11 01:12:27;;;;;;;31.63;19.85;;;;;;;6.62;74.47;95937.06;5036405;28;20426;-69
2022/11/11 01:14:52;;;;;;;30.75;19.17;;;;;;;6.69;74.02;95935.88;5064918;28;20223;-68
2022/11/11 01:17:18;;;;;;;28.17;18.30;;;;;;;6.78;74.38;95942.31;5063899;28;20506;-68
2022/11/11 01:19:43;;;;;;;30.17;18.35;;;;;;;6.88;75.22;95928.00;5064228;28;20029;-69
2022/11/11 01:22:09;;;;;;;28.33;17.77;;;;;;;6.90;74.50;95941.69;5037235;28;20486;-69
2022/11/11 01:24:36;;;;;;;25.60;17.63;;;;;;;6.90;75.04;95928.78;5053674;28;20479;-68
2022/11/11 01:27:02;;;;;;;28.60;17.35;;;;;;;6.93;75.59;95933.78;5062595;28;20041;-68
2022/11/11 01:29:27;;;;;;;27.40;17.40;;;;;;;7.10;74.12;95938.09;5060726;28;20043;-69
2022/11/11 01:31:53;;;;;;;30.33;17.92;;;;;;;6.91;74.72;95928.72;5054908;28;20422;-69
2022/11/11 01:34:18;;;;;;;24.02;17.00;;;;;;;6.92;74.72;95934.72;5066085;28;20024;-69
2022/11/11 01:36:44;;;;;;;28.35;17.95;;;;;;;7.06;74.74;95937.41;5059283;28;20056;-69
2022/11/11 01:39:09;;;;;;;28.60;18.58;;;;;;;6.97;73.61;95930.16;5065270;28;20025;-68
2022/11/11 01:41:37;;;;;;;25.88;17.27;;;;;;;7.04;73.25;95930.66;5055731;28;20499;-69
2022/11/11 01:44:12;;;;;;;28.55;18.55;;;;;;;6.88;72.59;95935.75;5070391;28;20129;-69
2022/11/11 01:46:54;;;;;;;28.17;17.73;;;;;;;6.99;71.98;95935.22;5073349;28;20418;-68
2022/11/11 01:49:35;;;;;;;25.52;17.33;;;;;;;6.79;72.63;95923.31;5063995;28;20028;-69
2022/11/11 01:52:06;;;;;;;26.17;17.48;;;;;;;6.79;72.83;95928.47;5056418;28;20067;-69
2022/11/11 01:54:34;;;;;;;26.05;16.63;;;;;;;6.85;72.06;95935.91;5054168;28;20024;-68
2022/11/11 01:57:03;;;;;;;24.60;16.58;;;;;;;6.76;71.71;95933.81;5039653;28;20126;-68
2022/11/11 01:59:30;;;;;;;26.48;17.20;;;;;;;6.72;71.90;95931.38;5036676;28;20502;-69
2022/11/11 02:01:56;;;;;;;25.70;17.23;;;;;;;6.68;72.12;95941.91;5053017;28;20064;-69
2022/11/11 02:07:07;;;;;;;25.77;16.85;;;;;;;6.54;72.06;95940.03;5053348;28;20497;-69
2022/11/11 02:09:32;;;;;;;26.10;17.13;;;;;;;6.51;72.47;95941.91;5035256;28;20461;-69
2022/11/11 02:14:46;;;;;;;28.02;17.90;;;;;;;6.43;72.76;95937.94;5055041;28;20039;-68
2022/11/11 02:17:13;;;;;;;29.45;18.02;;;;;;;6.29;73.28;95944.69;5036753;28;20497;-68
2022/11/11 02:19:44;;;;;;;27.60;18.48;;;;;;;6.12;73.58;95946.34;5046029;28;20419;-68
2022/11/11 02:22:16;;;;;;;;;;;;;;;6.14;73.83;95947.09;5053691;28;20501;-69
2022/11/11 02:24:42;;;;;;;24.77;16.45;;;;;;;6.07;74.14;95937.97;5040256;28;20437;-69
2022/11/11 02:27:09;;;;;;;30.05;17.23;;;;;;;6.16;74.40;95947.88;5054208;28;20036;-68
2022/11/11 02:29:35;;;;;;;32.58;19.80;;;;;;;6.17;74.05;95952.13;5071410;28;20108;-68
2022/11/11 02:32:00;;;;;;;28.75;19.38;;;;;;;6.14;74.95;95959.19;5079056;28;20118;-69
2022/11/11 02:34:32;;;;;;;31.17;19.08;;;;;;;6.26;75.81;95953.44;5043169;28;20024;-68
2022/11/11 02:36:58;;;;;;;37.65;21.60;;;;;;;6.28;76.89;95940.47;5053345;28;20098;-68
2022/11/11 02:39:24;;;;;;;39.42;23.83;;;;;;;6.43;78.84;95958.59;5048631;28;20033;-68
2022/11/11 02:41:56;;;;;;;37.63;23.13;;;;;;;6.49;78.63;95945.44;5053348;28;20028;-69
2022/11/11 02:44:21;;;;;;;;;;;;;;;6.54;78.48;95944.34;5036161;28;20032;-69
2022/11/11 02:46:46;;;;;;;35.60;20.80;;;;;;;6.72;76.91;95948.63;5070889;28;19921;-68
2022/11/11 02:49:12;;;;;;;33.05;20.38;;;;;;;6.57;77.25;95944.19;5061554;28;20410;-68
2022/11/11 02:51:37;;;;;;;35.90;21.92;;;;;;;6.67;76.47;95945.44;5048243;28;20047;-69
2022/11/11 02:54:02;;;;;;;32.58;23.45;;;;;;;6.78;75.52;95952.66;5070427;28;20098;-69
2022/11/11 02:59:12;;;;;;;31.55;22.52;;;;;;;6.59;74.92;95948.38;5070634;28;20031;-68
2022/11/11 03:01:37;;;;;;;32.13;21.70;;;;;;;6.41;76.31;95954.47;5057565;28;20033;-69
2022/11/11 03:04:03;;;;;;;32.80;23.17;;;;;;;6.47;75.76;95959.31;5068544;28;20024;-69
2022/11/11 03:06:28;;;;;;;35.60;24.10;;;;;;;6.41;75.11;95964.78;5056057;28;20048;-68
2022/11/11 03:08:54;;;;;;;38.88;26.52;;;;;;;6.27;74.47;95962.84;5052778;28;20044;-69
2022/11/11 03:11:26;;;;;;;43.65;27.30;;;;;;;6.27;74.31;95965.44;5053096;28;20028;-68
2022/11/11 03:13:55;;;;;;;34.67;24.00;;;;;;;6.26;73.44;95943.94;5051679;28;20151;-68
2022/11/11 03:17:38;;;;;;;33.20;22.38;;;;;;;6.42;72.14;95966.44;5059694;28;20427;-69
2022/11/11 03:19:12;;;;;;;38.15;22.75;;;;;;;6.35;72.80;95960.75;5052051;28;20052;-69
2022/11/11 03:21:38;;;;;;;36.22;23.48;;;;;;;6.16;74.01;95970.28;5051956;28;20483;-68
2022/11/11 03:24:03;;;;;;;34.13;22.25;;;;;;;6.24;73.95;95969.00;5045842;28;20505;-69
2022/11/11 03:26:29;;;;;;;30.90;20.77;;;;;;;6.35;73.64;95965.91;5055239;28;20520;-69
2022/11/11 03:28:54;;;;;;;32.92;22.23;;;;;;;6.41;73.58;95965.63;5060641;28;20032;-69
2022/11/11 03:31:20;;;;;;;38.22;25.48;;;;;;;6.30;74.38;95959.28;5033608;28;20049;-68
2022/11/11 03:33:45;;;;;;;33.83;22.70;;;;;;;6.43;74.06;95960.34;5044045;28;20491;-68
2022/11/11 03:36:11;;;;;;;32.90;23.17;;;;;;;6.44;73.92;95949.16;5050995;28;20063;-69
2022/11/11 03:38:36;;;;;;;33.88;23.38;;;;;;;6.41;74.20;95954.47;5051525;28;20584;-68
2022/11/11 03:41:02;;;;;;;61.88;39.72;;;;;;;6.31;74.44;95937.72;5053242;28;20487;-68
2022/11/11 03:43:31;;;;;;;48.95;33.42;;;;;;;6.48;74.03;95956.66;5064991;28;20589;-69
2022/11/11 03:45:58;;;;;;;36.05;26.08;;;;;;;6.42;73.76;95948.38;5050896;28;20033;-68
2022/11/11 03:48:24;;;;;;;36.03;25.00;;;;;;;6.42;74.28;95951.78;5051432;28;20458;-68
2022/11/11 03:50:49;;;;;;;40.53;27.70;;;;;;;6.47;73.96;95959.31;5050937;28;20033;-68
2022/11/11 03:53:16;;;;;;;39.90;27.65;;;;;;;6.38;74.27;95957.16;5058430;28;20028;-68
2022/11/11 03:55:41;;;;;;;40.35;26.45;;;;;;;6.48;74.07;95959.22;5049471;28;20039;-68
2022/11/11 03:58:07;;;;;;;33.55;24.58;;;;;;;6.55;74.18;95959.78;5061662;28;20426;-69
2022/11/11 04:00:32;;;;;;;35.35;26.60;;;;;;;6.53;74.57;95961.59;5068252;28;20078;-68
2022/11/11 04:11:13;;;;;;;33.50;22.35;;;;;;;6.28;75.92;95917.25;5069475;28;20116;-68
2022/11/11 04:16:23;;;;;;;31.48;21.30;;;;;;;6.65;76.24;95958.41;5055037;28;20093;-69
2022/11/11 04:21:44;;;;;;;38.50;24.05;;;;;;;7.03;80.00;95960.00;5064043;28;20514;-68
2022/11/11 04:26:59;;;;;;;40.80;26.38;;;;;;;7.21;80.35;95953.03;5038097;28;20036;-68
2022/11/11 04:29:27;;;;;;;36.50;22.73;;;;;;;7.29;80.10;95945.72;5069302;28;20035;-69
2022/11/11 04:34:46;;;;;;;36.40;22.83;;;;;;;7.46;79.53;95927.59;5051728;28;20547;-69
2022/11/11 04:37:12;;;;;;;50.63;30.63;;;;;;;7.83;78.12;95959.28;5034085;28;20045;-69
2022/11/11 04:42:21;;;;;;;41.78;24.63;;;;;;;7.61;80.61;95944.88;5069433;28;20063;-68
2022/11/11 04:47:31;;;;;;;41.72;27.92;;;;;;;7.95;79.31;95963.78;5064735;28;20047;-69
2022/11/11 04:49:56;;;;;;;38.65;23.58;;;;;;;7.90;79.02;95959.75;5050312;28;20029;-69
2022/11/11 04:52:27;;;;;;;39.15;23.95;;;;;;;8.07;78.82;95964.84;5050462;28;20479;-69
2022/11/11 04:57:47;;;;;;;36.88;23.60;;;;;;;8.24;80.17;95959.56;5056976;28;19932;-69
2022/11/11 05:00:16;;;;;;;42.60;26.50;;;;;;;8.32;79.90;95973.84;5051431;28;20033;-69
2022/11/11 05:05:26;;;;;;;37.20;25.02;;;;;;;8.58;77.82;95977.59;5066118;28;20074;-69
2022/11/11 05:10:35;;;;;;;39.45;24.70;;;;;;;8.56;76.54;95964.75;5052812;28;20086;-69
2022/11/11 05:21:31;;;;;;;37.60;22.80;;;;;;;8.66;75.49;95965.03;5064085;28;20044;-69
2022/11/11 05:26:40;;;;;;;29.17;20.02;;;;;;;8.74;74.96;95978.41;5067316;28;20048;-69
2022/11/11 05:29:05;;;;;;;32.97;21.05;;;;;;;8.73;75.06;95981.94;5064644;28;20024;-69
2022/11/11 05:31:31;;;;;;;32.35;21.17;;;;;;;8.77;74.92;95988.59;5058351;28;20127;-69
2022/11/11 05:33:56;;;;;;;30.67;20.60;;;;;;;8.74;75.08;95993.94;5064383;28;20086;-69
2022/11/11 05:36:22;;;;;;;30.60;21.05;;;;;;;8.74;74.94;95988.75;5070772;28;20047;-68
2022/11/11 05:38:47;;;;;;;29.83;20.65;;;;;;;8.71;75.16;95981.16;5070646;28;20523;-69
2022/11/11 05:41:13;;;;;;;32.10;20.42;;;;;;;8.79;75.71;95997.13;5067951;28;20020;-69
2022/11/11 05:43:38;;;;;;;32.47;20.20;;;;;;;8.80;75.21;95985.81;5072251;28;20035;-69
2022/11/11 05:46:04;;;;;;;29.23;20.98;;;;;;;8.71;74.81;96007.06;5056295;28;20087;-69
2022/11/11 05:48:30;;;;;;;31.38;21.73;;;;;;;8.73;74.42;96000.06;5063002;28;20078;-68
2022/11/11 05:50:59;;;;;;;34.00;22.90;;;;;;;8.75;74.49;96008.59;5063581;28;20118;-69
2022/11/11 05:53:24;;;;;;;37.17;25.48;;;;;;;8.82;74.04;96011.66;5057240;28;20040;-69
2022/11/11 05:55:50;;;;;;;42.55;30.10;;;;;;;8.90;73.31;96019.84;5053146;28;20032;-69
2022/11/11 05:58:19;;;;;;;35.42;25.13;;;;;;;8.87;73.50;96031.19;5055436;28;20082;-69
2022/11/11 06:00:44;;;;;;;34.58;24.73;;;;;;;8.88;73.75;96022.50;5065203;28;20032;-69
2022/11/11 06:03:10;;;;;;;38.28;26.08;;;;;;;8.92;73.39;96025.78;5072281;28;20033;-69
2022/11/11 06:05:36;;;;;;;34.95;25.35;;;;;;;9.01;73.33;96027.81;5071173;28;20024;-69
2022/11/11 06:08:01;;;;;;;37.42;25.83;;;;;;;8.91;73.72;96043.09;5046599;28;20028;-69
2022/11/11 06:10:29;;;;;;;42.53;29.38;;;;;;;8.97;73.86;96044.50;5061777;28;20060;-69
2022/11/11 06:13:03;;;;;;;41.30;28.73;;;;;;;8.88;74.49;96045.81;5057103;28;20036;-69
2022/11/11 06:15:36;;;;;;;41.72;26.63;;;;;;;8.92;74.97;96052.50;5057066;28;20033;-68
2022/11/11 06:18:02;;;;;;;37.88;24.33;;;;;;;8.62;75.75;96015.38;5062436;28;20021;-69
2022/11/11 06:20:27;;;;;;;36.15;23.27;;;;;;;8.77;75.95;96049.94;5045001;28;20097;-69
2022/11/11 06:22:56;;;;;;;33.75;22.55;;;;;;;8.80;76.29;96060.97;5058000;28;20482;-69
2022/11/11 06:28:09;;;;;;;34.80;22.83;;;;;;;8.68;76.52;96070.25;5051425;28;20036;-68
2022/11/11 06:30:35;;;;;;;41.42;24.13;;;;;;;8.68;75.91;96066.84;5066077;28;20029;-70
2022/11/11 06:33:01;;;;;;;33.85;21.08;;;;;;;8.82;75.68;96081.63;5057364;28;20533;-68
2022/11/11 06:35:26;;;;;;;34.90;22.75;;;;;;;8.87;75.48;96070.06;5044360;28;20426;-69
2022/11/11 06:37:51;;;;;;;37.45;23.08;;;;;;;8.97;75.05;96062.63;5062141;28;20100;-69
2022/11/11 06:40:17;;;;;;;33.85;22.13;;;;;;;8.90;75.64;96066.47;5059951;28;20025;-69
2022/11/11 06:42:43;;;;;;;29.77;20.75;;;;;;;9.01;75.63;96071.06;5034033;28;20487;-69
2022/11/11 06:45:09;;;;;;;33.03;20.75;;;;;;;9.14;75.24;96079.81;5060866;28;20037;-69
2022/11/11 06:47:34;;;;;;;37.55;23.23;;;;;;;9.07;75.39;96084.50;5055206;28;20033;-69
2022/11/11 06:50:00;;;;;;;35.88;23.05;;;;;;;9.22;75.01;96080.22;5058496;28;20043;-69
2022/11/11 06:52:25;;;;;;;36.72;21.27;;;;;;;9.32;74.65;96083.94;5052089;28;20506;-69
2022/11/11 06:54:51;;;;;;;33.50;21.92;;;;;;;9.38;74.55;96091.34;5062429;28;20021;-69
2022/11/11 06:57:16;;;;;;;34.72;23.52;;;;;;;9.38;74.45;96070.59;5060086;28;20055;-69
2022/11/11 06:59:42;;;;;;;36.08;23.50;;;;;;;9.48;73.92;96073.50;5073232;28;20025;-70
2022/11/11 07:02:13;;;;;;;38.00;23.65;;;;;;;9.59;73.78;96088.44;5061146;28;20025;-70
2022/11/11 07:04:39;;;;;;;38.55;23.48;;;;;;;9.60;73.63;96082.31;5058718;28;20184;-70
2022/11/11 07:07:04;;;;;;;32.95;23.13;;;;;;;9.63;73.14;96071.75;5057574;28;20045;-70
2022/11/11 07:09:30;;;;;;;32.30;22.48;;;;;;;9.62;72.99;96078.72;5057026;28;20036;-70
2022/11/11 07:11:55;;;;;;;37.20;22.80;;;;;;;9.63;73.09;96076.94;5062738;28;20502;-69
2022/11/11 07:14:20;;;;;;;33.67;22.02;;;;;;;9.66;72.91;96076.75;5056809;28;20502;-70
2022/11/11 07:16:46;;;;;;;32.03;21.52;;;;;;;9.67;73.00;96068.06;5053529;28;20045;-70
2022/11/11 07:19:11;;;;;;;34.00;22.05;;;;;;;9.61;73.54;96069.28;5057312;28;20032;-70
2022/11/11 07:21:37;;;;;;;33.40;22.27;;;;;;;9.69;73.01;96076.56;5056585;28;20033;-70
2022/11/11 07:24:02;;;;;;;33.85;20.98;;;;;;;9.79;73.07;96082.91;5056802;28;20499;-70
2022/11/11 07:26:28;;;;;;;32.75;22.63;;;;;;;9.65;73.45;96072.50;5061898;28;20508;-69
2022/11/11 07:28:54;;;;;;;32.75;21.17;;;;;;;9.74;73.87;96073.72;5066170;28;20090;-70
2022/11/11 07:31:20;;;;;;;31.55;21.70;;;;;;;9.81;73.88;96077.63;5049872;28;20057;-70
2022/11/11 07:33:45;;;;;;;35.85;23.08;;;;;;;9.90;73.87;96089.22;5056455;28;20036;-69
2022/11/11 07:36:11;;;;;;;30.80;20.08;;;;;;;9.85;73.68;96087.72;5053802;28;20401;-72
2022/11/11 07:38:37;;;;;;;30.73;20.73;;;;;;;9.91;73.56;96088.28;5054596;28;20738;-71
2022/11/11 07:41:03;;;;;;;29.42;19.83;;;;;;;10.01;73.68;96098.03;5060612;28;20028;-70
2022/11/11 07:43:28;;;;;;;27.50;18.17;;;;;;;9.96;73.80;96094.03;5049342;28;20472;-71
2022/11/11 07:45:54;;;;;;;26.30;17.15;;;;;;;10.09;73.58;96100.16;5055055;28;20059;-71
2022/11/11 07:48:19;;;;;;;24.05;15.75;;;;;;;9.91;73.89;96102.09;5059926;28;20565;-70
2022/11/11 07:50:45;;;;;;;27.95;15.50;;;;;;;10.00;73.73;96106.75;5061685;28;20029;-69
2022/11/11 07:53:10;;;;;;;22.17;15.15;;;;;;;10.04;73.35;96105.63;5060409;28;20024;-69
2022/11/11 07:55:36;;;;;;;22.48;15.27;;;;;;;10.14;73.03;96107.66;5043923;28;20044;-74
2022/11/11 07:58:01;;;;;;;25.58;15.05;;;;;;;10.14;73.09;96115.44;5054996;28;20029;-71
2022/11/11 08:00:27;;;;;;;21.10;13.77;;;;;;;10.22;72.51;96116.69;5047738;28;20017;-71
2022/11/11 08:02:52;;;;;;;22.08;14.90;;;;;;;10.08;72.98;96116.66;5049808;28;20391;-70
2022/11/11 08:05:17;;;;;;;21.02;13.95;;;;;;;10.12;72.71;96112.97;5051515;28;20421;-71
2022/11/11 08:07:43;;;;;;;21.77;13.55;;;;;;;10.09;72.45;96109.72;5056512;28;20040;-71
2022/11/11 08:10:09;;;;;;;21.88;13.43;;;;;;;10.18;72.03;96117.78;5059722;28;20039;-71
2022/11/11 08:15:19;;;;;;;20.48;13.95;;;;;;;10.22;72.11;96121.88;5061249;28;20097;-71
2022/11/11 08:17:44;;;;;;;20.15;13.32;;;;;;;10.20;72.01;96128.09;5058616;28;20426;-71
2022/11/11 08:20:10;;;;;;;20.00;13.30;;;;;;;10.20;72.29;96118.53;5060910;28;20286;-71
2022/11/11 08:22:40;;;;;;;20.58;13.30;;;;;;;10.20;71.94;96133.28;5056499;28;20107;-71
2022/11/11 08:25:10;;;;;;;21.42;13.85;;;;;;;10.24;71.83;96135.56;5057185;28;20038;-71
2022/11/11 08:27:35;;;;;;;20.08;12.93;;;;;;;10.21;71.54;96140.97;5056815;28;20557;-71
2022/11/11 08:30:01;;;;;;;18.33;13.10;;;;;;;10.09;71.31;96117.50;5044572;28;20086;-71
2022/11/11 08:32:26;;;;;;;21.92;13.00;;;;;;;10.16;71.33;96132.59;5041609;28;20537;-70
2022/11/11 08:34:52;;;;;;;19.58;12.93;;;;;;;10.20;71.11;96136.72;5053559;28;20032;-70
2022/11/11 08:37:17;;;;;;;16.92;11.63;;;;;;;10.18;71.05;96146.34;5061517;28;20037;-71
2022/11/11 08:39:43;;;;;;;17.10;12.07;;;;;;;10.14;71.05;96146.59;5036284;28;20037;-71
2022/11/11 08:42:09;;;;;;;17.27;11.73;;;;;;;10.17;71.04;96138.63;5041766;28;20036;-70
2022/11/11 08:44:34;;;;;;;17.98;13.02;;;;;;;10.20;70.94;96144.50;5047592;28;20490;-70
2022/11/11 08:47:00;;;;;;;20.70;12.20;;;;;;;10.16;71.09;96126.59;5064939;28;20474;-70
2022/11/11 08:49:25;;;;;;;20.02;12.55;;;;;;;10.26;70.64;96146.72;5045670;28;20040;-70
2022/11/11 08:51:51;;;;;;;17.33;11.43;;;;;;;10.21;70.93;96146.16;5061223;28;20422;-71
2022/11/11 08:54:16;;;;;;;17.52;12.10;;;;;;;10.24;70.65;96140.78;5066712;28;20028;-71
2022/11/11 08:56:42;;;;;;;18.40;12.75;;;;;;;10.24;71.04;96151.16;5066018;28;20052;-71
2022/11/11 08:59:08;;;;;;;17.65;12.15;;;;;;;10.33;70.95;96143.78;5065600;28;20032;-70
2022/11/11 09:01:34;;;;;;;18.05;11.98;;;;;;;10.43;70.64;96137.94;5062617;28;20430;-70
2022/11/11 09:04:00;;;;;;;18.63;12.15;;;;;;;10.39;70.60;96133.88;5065313;28;20033;-70
2022/11/11 09:06:26;;;;;;;19.25;12.13;;;;;;;10.51;70.33;96133.09;5042796;28;20187;-70
2022/11/11 09:08:52;;;;;;;19.30;11.80;;;;;;;10.59;69.98;96130.03;5059598;28;20021;-71
2022/11/11 09:11:17;;;;;;;15.90;11.13;;;;;;;10.53;69.46;96107.03;5064700;28;20402;-71
2022/11/11 09:13:43;;;;;;;16.15;10.80;;;;;;;10.58;69.56;96111.94;5066713;28;20055;-71
2022/11/11 09:16:08;;;;;;;16.33;11.15;;;;;;;10.76;69.40;96131.59;5048360;28;20469;-71
2022/11/11 09:18:34;;;;;;;15.43;11.15;;;;;;;10.79;69.23;96127.97;5049955;28;20035;-71
2022/11/11 09:20:59;;;;;;;16.17;11.05;;;;;;;10.78;69.30;96128.88;5062968;28;20107;-71
2022/11/11 09:23:25;;;;;;;17.33;11.50;;;;;;;10.95;68.53;96134.69;5067304;28;20025;-69
2022/11/11 09:25:50;;;;;;;21.92;16.77;;;;;;;11.00;68.51;96133.53;5046231;28;20040;-69
2022/11/11 09:28:16;;;;;;;22.45;15.77;;;;;;;11.06;68.12;96128.81;5031009;28;20047;-69
2022/11/11 09:30:42;;;;;;;16.00;11.18;;;;;;;11.11;67.88;96123.28;5064133;28;20078;-72
2022/11/11 09:33:08;;;;;;;19.25;12.85;;;;;;;11.13;67.71;96129.25;5065153;28;20070;-70
2022/11/11 09:35:34;;;;;;;15.02;10.82;;;;;;;11.23;66.83;96130.31;5050402;28;20033;-70
2022/11/11 09:38:00;;;;;;;14.20;10.68;;;;;;;11.18;66.87;96128.00;5047954;28;20021;-70
2022/11/11 09:40:46;;;;;;;14.95;10.27;;;;;;;11.22;66.91;96104.41;5063459;28;20039;-69
2022/11/11 09:43:22;;;;;;;15.70;10.10;;;;;;;11.29;66.68;96118.69;5063508;28;20278;-68
2022/11/11 09:46:11;;;;;;;13.75;9.60;;;;;;;11.28;66.83;96117.84;5059332;28;20037;-68
2022/11/11 09:48:51;;;;;;;13.00;8.88;;;;;;;11.38;66.66;96112.88;5062157;28;20379;-68
2022/11/11 09:51:29;;;;;;;13.75;9.82;;;;;;;11.36;66.38;96112.97;5056997;28;20399;-68
2022/11/11 09:54:04;;;;;;;16.63;11.70;;;;;;;11.45;65.62;96105.50;5044621;28;20045;-68
2022/11/11 09:56:30;;;;;;;20.55;16.42;;;;;;;11.46;65.75;96102.81;5043915;28;20060;-68
2022/11/11 09:59:03;;;;;;;20.35;15.27;;;;;;;11.39;65.97;96093.72;5059860;28;20453;-68
2022/11/11 10:01:33;;;;;;;15.20;11.70;;;;;;;11.18;66.07;96068.19;5033406;28;20043;-68
2022/11/11 10:04:16;;;;;;;13.57;10.15;;;;;;;11.47;65.80;96086.25;5062818;28;20036;-69
2022/11/11 10:06:42;;;;;;;13.93;9.50;;;;;;;11.54;65.24;96092.72;5065166;28;20232;-68
2022/11/11 10:09:24;;;;;;;13.68;9.60;;;;;;;11.57;65.05;96102.94;5049507;28;20024;-68
2022/11/11 10:12:07;;;;;;;12.30;9.20;;;;;;;11.65;64.54;96092.00;5031230;28;20096;-67
2022/11/11 10:14:37;;;;;;;14.32;9.68;;;;;;;11.62;64.46;96092.22;5047621;28;20032;-68
2022/11/11 10:17:33;;;;;;;13.55;8.82;;;;;;;11.68;63.80;96104.00;5048621;28;20046;-68
2022/11/11 10:20:17;;;;;;;16.85;12.45;;;;;;;11.61;63.91;96104.38;5043036;28;20036;-68
2022/11/11 10:22:43;;;;;;;17.13;13.43;;;;;;;11.52;63.72;96091.97;5064098;28;20107;-68
2022/11/11 10:25:11;;;;;;;12.27;9.65;;;;;;;11.55;63.72;96099.59;5045702;28;20077;-68
2022/11/11 10:27:39;;;;;;;12.13;9.10;;;;;;;11.50;63.56;96096.44;5065836;28;20094;-68
2022/11/11 10:30:23;;;;;;;16.25;10.27;;;;;;;11.58;63.41;96091.56;5045029;28;20081;-68
2022/11/11 10:32:53;;;;;;;12.80;8.27;;;;;;;11.44;63.29;96076.03;5060030;28;20052;-68
2022/11/11 10:35:30;;;;;;;11.88;9.73;;;;;;;11.40;62.85;96082.41;5061278;28;20023;-68
2022/11/11 10:38:21;;;;;;;39.67;26.10;;;;;;;11.57;62.56;96089.09;5062387;28;20185;-68
2022/11/11 10:40:53;;;;;;;11.60;9.43;;;;;;;11.49;62.76;96084.38;5042978;28;20414;-69
2022/11/11 10:43:23;;;;;;;11.90;8.88;;;;;;;11.55;62.74;96089.16;5064288;28;20082;-69
2022/11/11 10:46:21;;;;;;;10.73;7.43;;;;;;;11.55;62.57;96091.78;5062550;28;20032;-69
2022/11/11 10:48:50;;;;;;;11.18;7.72;;;;;;;11.52;62.60;96084.19;5063708;28;20054;-69
2022/11/11 10:51:15;;;;;;;10.68;8.18;;;;;;;11.53;62.75;96075.44;5062881;28;20033;-69
2022/11/11 10:53:56;;;;;;;10.25;7.70;;;;;;;11.63;62.53;96079.09;5044753;28;20075;-69
2022/11/11 10:56:35;;;;;;;11.93;8.90;;;;;;;11.67;62.65;96073.66;5065685;28;20047;-69
2022/11/11 10:59:06;;;;;;;12.60;8.68;;;;;;;11.72;62.78;96071.59;5064105;28;20043;-69
2022/11/11 11:01:34;;;;;;;;;;;;;;;11.81;62.48;96078.78;5067437;28;20031;-69
2022/11/11 11:04:05;;;;;;;12.68;8.80;;;;;;;11.67;62.20;96055.44;5068199;28;19920;-69
2022/11/11 11:06:33;;;;;;;10.23;7.70;;;;;;;11.76;61.54;96076.50;5050643;28;20044;-69
2022/11/11 11:09:11;;;;;;;13.77;10.25;;;;;;;11.87;61.28;96072.34;5033581;28;20509;-70
2022/11/11 11:11:52;;;;;;;11.02;8.68;;;;;;;11.77;60.94;96074.72;5047435;28;20065;-69
2022/11/11 11:14:23;;;;;;;11.50;7.68;;;;;;;11.90;60.51;96074.78;5044964;28;20028;-69
2022/11/11 11:16:54;;;;;;;10.63;6.68;;;;;;;11.88;59.42;96061.84;5064379;28;20048;-69
2022/11/11 11:19:24;;;;;;;9.20;6.90;;;;;;;11.85;59.44;96062.88;5050042;28;20525;-70
2022/11/11 11:21:54;;;;;;;7.93;6.45;;;;;;;11.79;58.89;96049.44;5064111;28;20049;-69
2022/11/11 11:24:26;;;;;;;7.93;5.82;;;;;;;11.82;58.78;96060.47;5066303;28;20458;-69
2022/11/11 11:26:57;;;;;;;8.73;6.47;;;;;;;11.92;58.50;96060.69;5066548;28;20277;-70
2022/11/11 11:29:31;;;;;;;8.25;6.43;;;;;;;11.96;58.45;96058.72;5033742;28;20574;-70
2022/11/11 11:32:09;;;;;;;8.90;6.82;;;;;;;11.79;58.29;96046.84;5048347;28;20496;-69
2022/11/11 11:34:54;;;;;;;8.32;6.40;;;;;;;11.87;58.41;96052.38;5066114;28;20021;-70
2022/11/11 11:37:21;;;;;;;8.68;6.72;;;;;;;12.02;58.06;96050.47;5066223;28;20040;-69
2022/11/11 11:39:47;;;;;;;9.80;6.50;;;;;;;12.00;58.26;96042.75;5065832;28;20047;-70
2022/11/11 11:42:32;;;;;;;8.73;7.47;;;;;;;12.08;58.23;96053.50;5043639;28;20570;-69
2022/11/11 11:45:21;;;;;;;12.30;8.50;;;;;;;12.17;57.65;96040.75;5062885;28;20021;-69
2022/11/11 11:47:58;;;;;;;13.52;9.38;;;;;;;12.10;57.82;96047.34;5062477;28;20044;-69
2022/11/11 11:50:36;;;;;;;10.38;8.25;;;;;;;12.14;57.80;96044.41;5066502;28;20028;-70
2022/11/11 11:53:30;;;;;;;9.80;6.97;;;;;;;12.15;57.50;96047.88;5067306;28;20025;-70
2022/11/11 11:55:59;;;;;;;9.00;5.95;;;;;;;12.03;55.98;96045.16;5064182;28;20156;-69
2022/11/11 11:58:32;;;;;;;7.97;5.80;;;;;;;12.12;56.27;96050.66;5067461;28;20067;-70
2022/11/11 12:01:12;;;;;;;10.30;6.00;;;;;;;12.02;55.61;96035.69;5048575;28;20059;-69
2022/11/11 12:03:48;;;;;;;7.00;5.45;;;;;;;12.10;55.80;96044.75;5033304;28;20119;-69
2022/11/11 12:06:23;;;;;;;11.70;6.20;;;;;;;12.12;55.20;96053.28;5066418;28;20032;-69
2022/11/11 12:09:00;;;;;;;6.97;5.47;;;;;;;12.08;55.18;96048.28;5065847;28;20021;-69
2022/11/11 12:11:37;;;;;;;7.40;6.03;;;;;;;12.00;55.00;96039.34;5065886;28;20040;-69
2022/11/11 12:14:17;;;;;;;8.50;6.40;;;;;;;12.06;55.10;96042.38;5063758;28;20124;-69
2022/11/11 12:16:42;;;;;;;7.85;6.03;;;;;;;12.10;55.52;96045.59;5050347;28;20040;-69
2022/11/11 12:19:20;;;;;;;8.80;5.38;;;;;;;12.11;55.61;96041.19;5065702;28;20023;-70
2022/11/11 12:22:03;;;;;;;7.20;5.93;;;;;;;12.11;55.72;96036.81;5065282;28;20375;-70
2022/11/11 12:24:34;;;;;;;8.15;6.03;;;;;;;12.08;55.92;96024.84;5066510;28;20035;-69
2022/11/11 12:27:17;;;;;;;10.48;8.02;;;;;;;12.04;55.72;96022.56;5067198;28;20107;-70
2022/11/11 12:29:47;;;;;;;12.20;9.82;;;;;;;12.12;55.56;96022.00;5065381;28;20063;-70
2022/11/11 12:32:40;;;;;;;9.65;8.32;;;;;;;12.13;55.79;96021.91;5065023;28;20048;-70
2022/11/11 12:35:20;;;;;;;8.65;6.60;;;;;;;12.20;55.14;96014.50;5066954;28;20066;-70
2022/11/11 12:37:49;;;;;;;9.18;6.60;;;;;;;12.19;55.69;96012.84;5066978;28;20047;-69
2022/11/11 12:40:23;;;;;;;8.82;6.95;;;;;;;12.26;55.27;96008.88;5065718;28;20046;-69
2022/11/11 12:43:21;;;;;;;8.57;6.20;;;;;;;12.24;55.08;96013.34;5068993;28;20041;-69
2022/11/11 12:45:48;;;;;;;8.10;6.10;;;;;;;12.17;55.29;96004.28;5059821;28;20036;-69